sensor_id;sensor_type;location;lat;lon;timestamp;P1;durP1;ratioP1;P2;durP2;ratioP2
18210;SDS011;9231;48.852;9.882;2023-08-30T00:01:11;16.57;;;14.97;;
18210;SDS011;9231;48.852;9.882;2023-08-30T00:03:37;16.37;;;14.80;;
18210;SDS011;9231;48.852;9.882;2023-08-30T00:06:04;16.67;;;15.17;;
18210;SDS011;9231;48.852;9.882;2023-08-30T00:08:30;16.80;;;15.10;;
18210;SDS011;9231;48.852;9.882;2023-08-30T00:10:57;15.97;;;14.47;;
18210;SDS011;9231;48.852;9.882;2023-08-30T00:13:23;17.00;;;15.27;;
18210;SDS011;9231;48.852;9.882;2023-08-30T00:15:51;16.50;;;15.00;;
18210;SDS011;9231;48.852;9.882;2023-08-30T00:18:18;16.80;;;15.10;;
18210;SDS011;9231;48.852;9.882;2023-08-30T00:20:45;18.00;;;16.13;;
18210;SDS011;9231;48.852;9.882;2023-08-30T00:23:11;18.70;;;16.70;;
18210;SDS011;9231;48.852;9.882;2023-08-30T00:25:37;18.07;;;16.30;;
18210;SDS011;9231;48.852;9.882;2023-08-30T00:28:04;18.80;;;16.80;;
18210;SDS011;9231;48.852;9.882;2023-08-30T00:30:31;17.83;;;15.93;;
18210;SDS011;9231;48.852;9.882;2023-08-30T00:32:59;18.73;;;16.53;;
18210;SDS011;9231;48.852;9.882;2023-08-30T00:35:25;20.03;;;17.43;;
18210;SDS011;9231;48.852;9.882;2023-08-30T00:37:52;19.50;;;17.47;;
18210;SDS011;9231;48.852;9.882;2023-08-30T00:40:22;19.90;;;17.80;;
18210;SDS011;9231;48.852;9.882;2023-08-30T00:42:48;19.27;;;17.20;;
18210;SDS011;9231;48.852;9.882;2023-08-30T00:45:15;19.37;;;16.27;;
18210;SDS011;9231;48.852;9.882;2023-08-30T00:47:41;18.10;;;15.63;;
18210;SDS011;9231;48.852;9.882;2023-08-30T00:50:09;16.67;;;14.97;;
18210;SDS011;9231;48.852;9.882;2023-08-30T00:52:36;18.17;;;16.27;;
18210;SDS011;9231;48.852;9.882;2023-08-30T00:55:03;18.43;;;16.47;;
18210;SDS011;9231;48.852;9.882;2023-08-30T00:57:29;17.77;;;15.97;;
18210;SDS011;9231;48.852;9.882;2023-08-30T00:59:56;18.03;;;16.20;;
18210;SDS011;9231;48.852;9.882;2023-08-30T01:02:22;16.63;;;15.13;;
18210;SDS011;9231;48.852;9.882;2023-08-30T01:04:50;17.47;;;15.53;;
18210;SDS011;9231;48.852;9.882;2023-08-30T01:07:18;18.37;;;16.57;;
18210;SDS011;9231;48.852;9.882;2023-08-30T01:09:45;18.30;;;16.37;;
18210;SDS011;9231;48.852;9.882;2023-08-30T01:12:12;20.20;;;17.13;;
18210;SDS011;9231;48.852;9.882;2023-08-30T01:14:43;18.10;;;16.30;;
18210;SDS011;9231;48.852;9.882;2023-08-30T01:17:10;18.13;;;16.43;;
18210;SDS011;9231;48.852;9.882;2023-08-30T01:19:41;19.20;;;17.17;;
18210;SDS011;9231;48.852;9.882;2023-08-30T01:22:11;18.53;;;16.70;;
18210;SDS011;9231;48.852;9.882;2023-08-30T01:24:44;21.97;;;16.40;;
18210;SDS011;9231;48.852;9.882;2023-08-30T01:27:13;19.73;;;15.70;;
18210;SDS011;9231;48.852;9.882;2023-08-30T01:29:40;18.47;;;16.33;;
18210;SDS011;9231;48.852;9.882;2023-08-30T01:32:09;19.20;;;17.17;;
18210;SDS011;9231;48.852;9.882;2023-08-30T01:34:35;17.87;;;15.63;;
18210;SDS011;9231;48.852;9.882;2023-08-30T01:37:03;17.40;;;15.60;;
18210;SDS011;9231;48.852;9.882;2023-08-30T01:39:31;17.70;;;15.10;;
18210;SDS011;9231;48.852;9.882;2023-08-30T01:41:57;19.60;;;15.80;;
18210;SDS011;9231;48.852;9.882;2023-08-30T01:44:27;16.80;;;14.87;;
18210;SDS011;9231;48.852;9.882;2023-08-30T01:46:54;16.27;;;14.77;;
18210;SDS011;9231;48.852;9.882;2023-08-30T01:49:21;15.47;;;13.90;;
18210;SDS011;9231;48.852;9.882;2023-08-30T01:51:48;16.30;;;14.53;;
18210;SDS011;9231;48.852;9.882;2023-08-30T01:54:16;16.30;;;14.10;;
18210;SDS011;9231;48.852;9.882;2023-08-30T01:56:43;16.33;;;14.63;;
18210;SDS011;9231;48.852;9.882;2023-08-30T01:59:10;14.97;;;13.40;;
18210;SDS011;9231;48.852;9.882;2023-08-30T02:01:38;15.50;;;13.93;;
18210;SDS011;9231;48.852;9.882;2023-08-30T02:04:04;15.87;;;14.27;;
18210;SDS011;9231;48.852;9.882;2023-08-30T02:06:32;14.20;;;12.80;;
18210;SDS011;9231;48.852;9.882;2023-08-30T02:09:01;16.43;;;13.80;;
18210;SDS011;9231;48.852;9.882;2023-08-30T02:11:29;14.87;;;13.37;;
18210;SDS011;9231;48.852;9.882;2023-08-30T02:13:59;15.87;;;14.27;;
18210;SDS011;9231;48.852;9.882;2023-08-30T02:16:26;17.90;;;14.47;;
18210;SDS011;9231;48.852;9.882;2023-08-30T02:18:54;15.63;;;13.93;;
18210;SDS011;9231;48.852;9.882;2023-08-30T02:21:21;15.30;;;13.70;;
18210;SDS011;9231;48.852;9.882;2023-08-30T02:23:49;16.57;;;13.67;;
18210;SDS011;9231;48.852;9.882;2023-08-30T02:26:17;17.77;;;13.93;;
18210;SDS011;9231;48.852;9.882;2023-08-30T02:28:43;15.37;;;13.97;;
18210;SDS011;9231;48.852;9.882;2023-08-30T02:31:10;16.20;;;14.60;;
18210;SDS011;9231;48.852;9.882;2023-08-30T02:33:36;15.10;;;13.70;;
18210;SDS011;9231;48.852;9.882;2023-08-30T02:36:04;17.07;;;13.97;;
18210;SDS011;9231;48.852;9.882;2023-08-30T02:38:31;15.37;;;13.77;;
18210;SDS011;9231;48.852;9.882;2023-08-30T02:40:57;16.47;;;14.37;;
18210;SDS011;9231;48.852;9.882;2023-08-30T02:43:24;20.70;;;14.47;;
18210;SDS011;9231;48.852;9.882;2023-08-30T02:45:50;16.10;;;14.10;;
18210;SDS011;9231;48.852;9.882;2023-08-30T02:48:17;14.83;;;13.43;;
18210;SDS011;9231;48.852;9.882;2023-08-30T02:50:44;15.73;;;14.03;;
18210;SDS011;9231;48.852;9.882;2023-08-30T02:53:11;16.57;;;14.63;;
18210;SDS011;9231;48.852;9.882;2023-08-30T02:55:38;16.10;;;14.10;;
18210;SDS011;9231;48.852;9.882;2023-08-30T02:58:04;14.47;;;13.07;;
18210;SDS011;9231;48.852;9.882;2023-08-30T03:00:31;14.70;;;13.13;;
18210;SDS011;9231;48.852;9.882;2023-08-30T03:02:59;14.40;;;13.00;;
18210;SDS011;9231;48.852;9.882;2023-08-30T03:05:25;15.13;;;13.73;;
18210;SDS011;9231;48.852;9.882;2023-08-30T03:07:52;15.50;;;13.53;;
18210;SDS011;9231;48.852;9.882;2023-08-30T03:10:20;14.80;;;13.40;;
18210;SDS011;9231;48.852;9.882;2023-08-30T03:12:46;14.47;;;13.17;;
18210;SDS011;9231;48.852;9.882;2023-08-30T03:15:13;14.07;;;12.63;;
18210;SDS011;9231;48.852;9.882;2023-08-30T03:17:39;15.37;;;13.80;;
18210;SDS011;9231;48.852;9.882;2023-08-30T03:20:06;14.87;;;13.37;;
18210;SDS011;9231;48.852;9.882;2023-08-30T03:22:33;15.53;;;13.93;;
18210;SDS011;9231;48.852;9.882;2023-08-30T03:24:59;14.50;;;13.10;;
18210;SDS011;9231;48.852;9.882;2023-08-30T03:27:30;14.37;;;12.87;;
18210;SDS011;9231;48.852;9.882;2023-08-30T03:29:56;16.93;;;14.33;;
18210;SDS011;9231;48.852;9.882;2023-08-30T03:32:23;16.27;;;14.57;;
18210;SDS011;9231;48.852;9.882;2023-08-30T03:34:49;17.53;;;14.13;;
18210;SDS011;9231;48.852;9.882;2023-08-30T03:37:16;16.20;;;13.90;;
18210;SDS011;9231;48.852;9.882;2023-08-30T03:39:42;18.13;;;13.57;;
18210;SDS011;9231;48.852;9.882;2023-08-30T03:42:09;13.93;;;12.53;;
18210;SDS011;9231;48.852;9.882;2023-08-30T03:44:37;14.87;;;13.37;;
18210;SDS011;9231;48.852;9.882;2023-08-30T03:47:03;14.67;;;13.27;;
18210;SDS011;9231;48.852;9.882;2023-08-30T03:49:30;14.40;;;13.00;;
18210;SDS011;9231;48.852;9.882;2023-08-30T03:51:56;15.43;;;12.87;;
18210;SDS011;9231;48.852;9.882;2023-08-30T03:54:23;15.03;;;13.53;;
18210;SDS011;9231;48.852;9.882;2023-08-30T03:56:49;16.80;;;13.00;;
18210;SDS011;9231;48.852;9.882;2023-08-30T03:59:16;14.73;;;13.13;;
18210;SDS011;9231;48.852;9.882;2023-08-30T04:01:44;15.03;;;13.50;;
18210;SDS011;9231;48.852;9.882;2023-08-30T04:04:11;14.07;;;12.67;;
18210;SDS011;9231;48.852;9.882;2023-08-30T04:06:37;15.13;;;13.63;;
18210;SDS011;9231;48.852;9.882;2023-08-30T04:09:04;14.27;;;12.97;;
18210;SDS011;9231;48.852;9.882;2023-08-30T04:11:31;13.63;;;12.23;;
18210;SDS011;9231;48.852;9.882;2023-08-30T04:13:57;15.67;;;14.27;;
18210;SDS011;9231;48.852;9.882;2023-08-30T04:16:24;15.60;;;14.00;;
18210;SDS011;9231;48.852;9.882;2023-08-30T04:18:52;15.60;;;14.13;;
18210;SDS011;9231;48.852;9.882;2023-08-30T04:21:18;16.03;;;14.23;;
18210;SDS011;9231;48.852;9.882;2023-08-30T04:23:45;15.07;;;13.47;;
18210;SDS011;9231;48.852;9.882;2023-08-30T04:26:11;16.80;;;15.03;;
18210;SDS011;9231;48.852;9.882;2023-08-30T04:28:37;15.07;;;13.57;;
18210;SDS011;9231;48.852;9.882;2023-08-30T04:31:04;14.83;;;13.43;;
18210;SDS011;9231;48.852;9.882;2023-08-30T04:33:30;15.67;;;14.17;;
18210;SDS011;9231;48.852;9.882;2023-08-30T04:35:59;14.57;;;13.17;;
18210;SDS011;9231;48.852;9.882;2023-08-30T04:38:26;16.80;;;14.40;;
18210;SDS011;9231;48.852;9.882;2023-08-30T04:40:56;15.37;;;13.73;;
18210;SDS011;9231;48.852;9.882;2023-08-30T04:43:22;17.93;;;14.23;;
18210;SDS011;9231;48.852;9.882;2023-08-30T04:45:49;16.47;;;14.77;;
18210;SDS011;9231;48.852;9.882;2023-08-30T04:48:15;15.77;;;14.10;;
18210;SDS011;9231;48.852;9.882;2023-08-30T04:50:42;15.57;;;14.03;;
18210;SDS011;9231;48.852;9.882;2023-08-30T04:53:10;16.07;;;13.70;;
18210;SDS011;9231;48.852;9.882;2023-08-30T04:55:36;16.40;;;14.70;;
18210;SDS011;9231;48.852;9.882;2023-08-30T04:58:03;16.53;;;14.87;;
18210;SDS011;9231;48.852;9.882;2023-08-30T05:00:31;15.13;;;13.57;;
18210;SDS011;9231;48.852;9.882;2023-08-30T05:02:58;15.77;;;14.23;;
18210;SDS011;9231;48.852;9.882;2023-08-30T05:05:24;16.43;;;14.83;;
18210;SDS011;9231;48.852;9.882;2023-08-30T05:07:50;16.23;;;14.53;;
18210;SDS011;9231;48.852;9.882;2023-08-30T05:10:18;15.57;;;13.87;;
18210;SDS011;9231;48.852;9.882;2023-08-30T05:12:45;15.40;;;13.83;;
18210;SDS011;9231;48.852;9.882;2023-08-30T05:15:16;15.00;;;13.60;;
18210;SDS011;9231;48.852;9.882;2023-08-30T05:17:43;15.23;;;13.73;;
18210;SDS011;9231;48.852;9.882;2023-08-30T05:20:09;14.80;;;13.33;;
18210;SDS011;9231;48.852;9.882;2023-08-30T05:22:38;16.00;;;14.30;;
18210;SDS011;9231;48.852;9.882;2023-08-30T05:25:04;15.03;;;13.43;;
18210;SDS011;9231;48.852;9.882;2023-08-30T05:27:32;14.93;;;13.43;;
18210;SDS011;9231;48.852;9.882;2023-08-30T05:29:59;15.00;;;13.60;;
18210;SDS011;9231;48.852;9.882;2023-08-30T05:32:25;15.10;;;13.63;;
18210;SDS011;9231;48.852;9.882;2023-08-30T05:34:52;23.08;;;20.83;;
18210;SDS011;9231;48.852;9.882;2023-08-30T05:37:18;18.53;;;16.67;;
18210;SDS011;9231;48.852;9.882;2023-08-30T05:39:45;18.87;;;15.07;;
18210;SDS011;9231;48.852;9.882;2023-08-30T05:42:11;15.83;;;14.23;;
18210;SDS011;9231;48.852;9.882;2023-08-30T05:44:39;15.60;;;13.97;;
18210;SDS011;9231;48.852;9.882;2023-08-30T05:47:09;15.90;;;14.27;;
18210;SDS011;9231;48.852;9.882;2023-08-30T05:49:39;16.13;;;13.30;;
18210;SDS011;9231;48.852;9.882;2023-08-30T05:52:06;16.83;;;15.03;;
18210;SDS011;9231;48.852;9.882;2023-08-30T05:54:32;16.03;;;14.53;;
18210;SDS011;9231;48.852;9.882;2023-08-30T05:56:59;15.63;;;14.07;;
18210;SDS011;9231;48.852;9.882;2023-08-30T05:59:26;15.83;;;14.33;;
18210;SDS011;9231;48.852;9.882;2023-08-30T06:01:55;15.07;;;13.60;;
18210;SDS011;9231;48.852;9.882;2023-08-30T06:04:22;14.00;;;12.60;;
18210;SDS011;9231;48.852;9.882;2023-08-30T06:06:51;15.60;;;14.00;;
18210;SDS011;9231;48.852;9.882;2023-08-30T06:09:18;14.03;;;12.63;;
18210;SDS011;9231;48.852;9.882;2023-08-30T06:11:44;14.47;;;13.17;;
18210;SDS011;9231;48.852;9.882;2023-08-30T06:14:13;13.77;;;12.37;;
18210;SDS011;9231;48.852;9.882;2023-08-30T06:16:43;14.47;;;12.97;;
18210;SDS011;9231;48.852;9.882;2023-08-30T06:19:11;13.73;;;12.43;;
18210;SDS011;9231;48.852;9.882;2023-08-30T06:21:37;14.30;;;12.80;;
18210;SDS011;9231;48.852;9.882;2023-08-30T06:24:04;12.93;;;11.73;;
18210;SDS011;9231;48.852;9.882;2023-08-30T06:26:31;13.77;;;12.37;;
18210;SDS011;9231;48.852;9.882;2023-08-30T06:28:57;13.87;;;12.50;;
18210;SDS011;9231;48.852;9.882;2023-08-30T06:31:24;13.63;;;12.43;;
18210;SDS011;9231;48.852;9.882;2023-08-30T06:33:51;14.17;;;12.67;;
18210;SDS011;9231;48.852;9.882;2023-08-30T06:36:19;13.63;;;12.20;;
18210;SDS011;9231;48.852;9.882;2023-08-30T06:38:48;12.57;;;11.47;;
18210;SDS011;9231;48.852;9.882;2023-08-30T06:41:14;13.07;;;11.77;;
18210;SDS011;9231;48.852;9.882;2023-08-30T06:43:40;13.07;;;11.87;;
18210;SDS011;9231;48.852;9.882;2023-08-30T06:46:07;12.67;;;11.37;;
18210;SDS011;9231;48.852;9.882;2023-08-30T06:48:33;15.07;;;12.20;;
18210;SDS011;9231;48.852;9.882;2023-08-30T06:51:00;13.30;;;11.90;;
18210;SDS011;9231;48.852;9.882;2023-08-30T06:53:28;13.13;;;11.73;;
18210;SDS011;9231;48.852;9.882;2023-08-30T06:55:57;13.00;;;11.70;;
18210;SDS011;9231;48.852;9.882;2023-08-30T06:58:24;13.30;;;12.13;;
18210;SDS011;9231;48.852;9.882;2023-08-30T07:00:50;12.57;;;11.37;;
18210;SDS011;9231;48.852;9.882;2023-08-30T07:03:17;12.80;;;11.60;;
18210;SDS011;9231;48.852;9.882;2023-08-30T07:05:43;11.70;;;10.67;;
18210;SDS011;9231;48.852;9.882;2023-08-30T07:08:12;11.90;;;10.77;;
18210;SDS011;9231;48.852;9.882;2023-08-30T07:10:40;11.67;;;10.47;;
18210;SDS011;9231;48.852;9.882;2023-08-30T07:13:06;13.03;;;11.80;;
18210;SDS011;9231;48.852;9.882;2023-08-30T07:15:36;12.40;;;11.20;;
18210;SDS011;9231;48.852;9.882;2023-08-30T07:18:03;11.47;;;10.27;;
18210;SDS011;9231;48.852;9.882;2023-08-30T07:20:30;11.47;;;10.47;;
18210;SDS011;9231;48.852;9.882;2023-08-30T07:22:56;10.80;;;9.80;;
18210;SDS011;9231;48.852;9.882;2023-08-30T07:25:23;9.90;;;8.90;;
18210;SDS011;9231;48.852;9.882;2023-08-30T07:27:51;9.00;;;8.20;;
18210;SDS011;9231;48.852;9.882;2023-08-30T07:30:17;9.60;;;8.60;;
18210;SDS011;9231;48.852;9.882;2023-08-30T07:32:44;9.93;;;9.03;;
18210;SDS011;9231;48.852;9.882;2023-08-30T07:35:11;9.17;;;8.37;;
18210;SDS011;9231;48.852;9.882;2023-08-30T07:37:37;9.17;;;8.27;;
18210;SDS011;9231;48.852;9.882;2023-08-30T07:40:04;10.87;;;8.50;;
18210;SDS011;9231;48.852;9.882;2023-08-30T07:42:31;9.33;;;8.43;;
18210;SDS011;9231;48.852;9.882;2023-08-30T07:44:59;9.77;;;8.77;;
18210;SDS011;9231;48.852;9.882;2023-08-30T07:47:25;10.63;;;9.63;;
18210;SDS011;9231;48.852;9.882;2023-08-30T07:49:52;9.23;;;8.40;;
18210;SDS011;9231;48.852;9.882;2023-08-30T07:52:18;9.37;;;7.50;;
18210;SDS011;9231;48.852;9.882;2023-08-30T07:54:44;8.83;;;7.93;;
18210;SDS011;9231;48.852;9.882;2023-08-30T07:57:11;9.07;;;8.07;;
18210;SDS011;9231;48.852;9.882;2023-08-30T07:59:38;7.40;;;6.70;;
18210;SDS011;9231;48.852;9.882;2023-08-30T08:02:06;7.63;;;7.03;;
18210;SDS011;9231;48.852;9.882;2023-08-30T08:04:33;6.97;;;6.37;;
18210;SDS011;9231;48.852;9.882;2023-08-30T08:06:59;8.83;;;7.63;;
18210;SDS011;9231;48.852;9.882;2023-08-30T08:09:26;8.47;;;7.17;;
18210;SDS011;9231;48.852;9.882;2023-08-30T08:11:53;7.67;;;6.90;;
18210;SDS011;9231;48.852;9.882;2023-08-30T08:14:21;7.23;;;6.63;;
18210;SDS011;9231;48.852;9.882;2023-08-30T08:16:47;7.63;;;6.83;;
18210;SDS011;9231;48.852;9.882;2023-08-30T08:19:15;9.70;;;6.87;;
18210;SDS011;9231;48.852;9.882;2023-08-30T08:21:41;6.40;;;5.57;;
18210;SDS011;9231;48.852;9.882;2023-08-30T08:24:08;6.37;;;5.80;;
18210;SDS011;9231;48.852;9.882;2023-08-30T08:26:34;9.77;;;7.63;;
18210;SDS011;9231;48.852;9.882;2023-08-30T08:29:01;7.80;;;6.80;;
18210;SDS011;9231;48.852;9.882;2023-08-30T08:31:28;9.90;;;6.13;;
18210;SDS011;9231;48.852;9.882;2023-08-30T08:34:05;7.07;;;5.97;;
18210;SDS011;9231;48.852;9.882;2023-08-30T08:36:33;6.97;;;6.27;;
18210;SDS011;9231;48.852;9.882;2023-08-30T08:38:59;6.23;;;5.67;;
18210;SDS011;9231;48.852;9.882;2023-08-30T08:41:26;5.83;;;4.93;;
18210;SDS011;9231;48.852;9.882;2023-08-30T08:43:56;5.87;;;5.37;;
18210;SDS011;9231;48.852;9.882;2023-08-30T08:46:24;5.90;;;5.40;;
18210;SDS011;9231;48.852;9.882;2023-08-30T08:48:50;6.57;;;5.33;;
18210;SDS011;9231;48.852;9.882;2023-08-30T08:51:18;6.10;;;5.60;;
18210;SDS011;9231;48.852;9.882;2023-08-30T08:53:47;5.13;;;4.67;;
18210;SDS011;9231;48.852;9.882;2023-08-30T08:56:14;5.03;;;4.53;;
18210;SDS011;9231;48.852;9.882;2023-08-30T08:58:40;5.17;;;4.67;;
18210;SDS011;9231;48.852;9.882;2023-08-30T09:01:08;4.70;;;4.20;;
18210;SDS011;9231;48.852;9.882;2023-08-30T09:03:35;5.33;;;3.13;;
18210;SDS011;9231;48.852;9.882;2023-08-30T09:06:02;3.40;;;3.10;;
18210;SDS011;9231;48.852;9.882;2023-08-30T09:08:29;3.30;;;3.00;;
18210;SDS011;9231;48.852;9.882;2023-08-30T09:10:57;4.43;;;3.20;;
18210;SDS011;9231;48.852;9.882;2023-08-30T09:13:23;4.33;;;3.70;;
18210;SDS011;9231;48.852;9.882;2023-08-30T09:15:51;5.70;;;3.60;;
18210;SDS011;9231;48.852;9.882;2023-08-30T09:18:17;4.67;;;3.60;;
18210;SDS011;9231;48.852;9.882;2023-08-30T09:20:44;5.87;;;3.50;;
18210;SDS011;9231;48.852;9.882;2023-08-30T09:23:17;3.80;;;3.40;;
18210;SDS011;9231;48.852;9.882;2023-08-30T09:25:45;3.50;;;3.20;;
18210;SDS011;9231;48.852;9.882;2023-08-30T09:28:13;3.10;;;2.80;;
18210;SDS011;9231;48.852;9.882;2023-08-30T09:30:39;6.47;;;3.30;;
18210;SDS011;9231;48.852;9.882;2023-08-30T09:33:06;3.87;;;2.87;;
18210;SDS011;9231;48.852;9.882;2023-08-30T09:35:32;3.57;;;3.00;;
18210;SDS011;9231;48.852;9.882;2023-08-30T09:38:05;3.60;;;2.60;;
18210;SDS011;9231;48.852;9.882;2023-08-30T09:40:32;3.50;;;3.00;;
18210;SDS011;9231;48.852;9.882;2023-08-30T09:42:59;4.23;;;3.40;;
18210;SDS011;9231;48.852;9.882;2023-08-30T09:45:28;5.17;;;3.30;;
18210;SDS011;9231;48.852;9.882;2023-08-30T09:47:56;3.90;;;3.50;;
18210;SDS011;9231;48.852;9.882;2023-08-30T09:50:22;5.07;;;3.83;;
18210;SDS011;9231;48.852;9.882;2023-08-30T09:52:49;4.20;;;3.00;;
18210;SDS011;9231;48.852;9.882;2023-08-30T09:55:16;4.00;;;3.60;;
18210;SDS011;9231;48.852;9.882;2023-08-30T09:57:44;3.67;;;3.37;;
18210;SDS011;9231;48.852;9.882;2023-08-30T10:00:11;6.43;;;3.30;;
18210;SDS011;9231;48.852;9.882;2023-08-30T10:02:40;3.97;;;3.30;;
18210;SDS011;9231;48.852;9.882;2023-08-30T10:05:08;3.17;;;2.87;;
18210;SDS011;9231;48.852;9.882;2023-08-30T10:07:36;5.07;;;3.87;;
18210;SDS011;9231;48.852;9.882;2023-08-30T10:10:03;3.77;;;3.47;;
18210;SDS011;9231;48.852;9.882;2023-08-30T10:12:31;3.33;;;3.03;;
18210;SDS011;9231;48.852;9.882;2023-08-30T10:14:58;3.50;;;3.20;;
18210;SDS011;9231;48.852;9.882;2023-08-30T10:17:26;2.97;;;2.60;;
18210;SDS011;9231;48.852;9.882;2023-08-30T10:19:54;3.42;;;3.13;;
18210;SDS011;9231;48.852;9.882;2023-08-30T10:22:21;3.67;;;3.37;;
18210;SDS011;9231;48.852;9.882;2023-08-30T10:24:50;3.80;;;2.77;;
18210;SDS011;9231;48.852;9.882;2023-08-30T10:27:17;3.47;;;2.90;;
18210;SDS011;9231;48.852;9.882;2023-08-30T10:29:44;3.13;;;2.67;;
18210;SDS011;9231;48.852;9.882;2023-08-30T10:32:11;3.00;;;2.70;;
18210;SDS011;9231;48.852;9.882;2023-08-30T10:34:38;3.78;;;2.83;;
18210;SDS011;9231;48.852;9.882;2023-08-30T10:37:07;2.33;;;2.10;;
18210;SDS011;9231;48.852;9.882;2023-08-30T10:39:34;2.83;;;2.45;;
18210;SDS011;9231;48.852;9.882;2023-08-30T10:42:07;2.75;;;2.40;;
18210;SDS011;9231;48.852;9.882;2023-08-30T10:44:34;2.42;;;2.22;;
18210;SDS011;9231;48.852;9.882;2023-08-30T10:47:01;4.55;;;1.90;;
18210;SDS011;9231;48.852;9.882;2023-08-30T10:49:28;2.60;;;2.30;;
18210;SDS011;9231;48.852;9.882;2023-08-30T10:51:54;2.65;;;2.45;;
18210;SDS011;9231;48.852;9.882;2023-08-30T10:54:22;3.33;;;2.40;;
18210;SDS011;9231;48.852;9.882;2023-08-30T10:56:54;4.43;;;2.42;;
18210;SDS011;9231;48.852;9.882;2023-08-30T10:59:21;2.13;;;1.92;;
18210;SDS011;9231;48.852;9.882;2023-08-30T11:01:49;2.83;;;2.03;;
18210;SDS011;9231;48.852;9.882;2023-08-30T11:04:16;3.05;;;1.33;;
18210;SDS011;9231;48.852;9.882;2023-08-30T11:06:43;2.03;;;1.80;;
18210;SDS011;9231;48.852;9.882;2023-08-30T11:09:12;2.35;;;1.63;;
18210;SDS011;9231;48.852;9.882;2023-08-30T11:11:40;2.50;;;2.13;;
18210;SDS011;9231;48.852;9.882;2023-08-30T11:14:07;3.28;;;1.70;;
18210;SDS011;9231;48.852;9.882;2023-08-30T11:16:33;4.28;;;1.77;;
18210;SDS011;9231;48.852;9.882;2023-08-30T11:19:00;2.00;;;1.52;;
18210;SDS011;9231;48.852;9.882;2023-08-30T11:21:28;1.67;;;1.38;;
18210;SDS011;9231;48.852;9.882;2023-08-30T11:23:54;1.58;;;1.10;;
18210;SDS011;9231;48.852;9.882;2023-08-30T11:26:21;1.83;;;1.27;;
18210;SDS011;9231;48.852;9.882;2023-08-30T11:28:49;1.60;;;1.40;;
18210;SDS011;9231;48.852;9.882;2023-08-30T11:31:18;2.47;;;1.80;;
18210;SDS011;9231;48.852;9.882;2023-08-30T11:33:49;1.63;;;1.48;;
18210;SDS011;9231;48.852;9.882;2023-08-30T11:36:16;1.85;;;1.30;;
18210;SDS011;9231;48.852;9.882;2023-08-30T11:38:44;2.40;;;1.20;;
18210;SDS011;9231;48.852;9.882;2023-08-30T11:41:11;1.20;;;1.10;;
18210;SDS011;9231;48.852;9.882;2023-08-30T11:43:38;1.55;;;1.08;;
18210;SDS011;9231;48.852;9.882;2023-08-30T11:46:06;1.60;;;1.50;;
18210;SDS011;9231;48.852;9.882;2023-08-30T11:48:32;2.03;;;1.25;;
18210;SDS011;9231;48.852;9.882;2023-08-30T11:50:59;1.13;;;1.02;;
18210;SDS011;9231;48.852;9.882;2023-08-30T11:53:26;2.10;;;1.30;;
18210;SDS011;9231;48.852;9.882;2023-08-30T11:55:54;2.80;;;1.15;;
18210;SDS011;9231;48.852;9.882;2023-08-30T11:58:20;4.07;;;1.42;;
18210;SDS011;9231;48.852;9.882;2023-08-30T12:00:48;2.70;;;1.10;;
18210;SDS011;9231;48.852;9.882;2023-08-30T12:03:17;1.08;;;0.90;;
18210;SDS011;9231;48.852;9.882;2023-08-30T12:05:44;2.13;;;1.20;;
18210;SDS011;9231;48.852;9.882;2023-08-30T12:08:17;1.58;;;0.93;;
18210;SDS011;9231;48.852;9.882;2023-08-30T12:10:43;3.38;;;1.00;;
18210;SDS011;9231;48.852;9.882;2023-08-30T12:13:19;0.90;;;0.80;;
18210;SDS011;9231;48.852;9.882;2023-08-30T12:15:45;1.30;;;1.00;;
18210;SDS011;9231;48.852;9.882;2023-08-30T12:18:12;1.30;;;1.02;;
18210;SDS011;9231;48.852;9.882;2023-08-30T12:20:40;1.20;;;1.10;;
18210;SDS011;9231;48.852;9.882;2023-08-30T12:23:19;2.35;;;1.48;;
18210;SDS011;9231;48.852;9.882;2023-08-30T12:25:55;2.25;;;1.05;;
18210;SDS011;9231;48.852;9.882;2023-08-30T12:28:22;1.85;;;0.90;;
18210;SDS011;9231;48.852;9.882;2023-08-30T12:30:49;1.80;;;1.08;;
18210;SDS011;9231;48.852;9.882;2023-08-30T12:33:16;1.30;;;0.80;;
18210;SDS011;9231;48.852;9.882;2023-08-30T12:35:44;1.63;;;0.90;;
18210;SDS011;9231;48.852;9.882;2023-08-30T12:38:10;1.48;;;0.90;;
18210;SDS011;9231;48.852;9.882;2023-08-30T12:40:42;1.70;;;1.10;;
18210;SDS011;9231;48.852;9.882;2023-08-30T12:43:08;1.92;;;1.02;;
18210;SDS011;9231;48.852;9.882;2023-08-30T12:45:35;1.35;;;0.90;;
18210;SDS011;9231;48.852;9.882;2023-08-30T12:48:02;1.52;;;1.08;;
18210;SDS011;9231;48.852;9.882;2023-08-30T12:50:28;1.15;;;1.02;;
18210;SDS011;9231;48.852;9.882;2023-08-30T12:52:56;2.08;;;1.00;;
18210;SDS011;9231;48.852;9.882;2023-08-30T12:55:23;2.50;;;1.05;;
18210;SDS011;9231;48.852;9.882;2023-08-30T12:57:49;0.93;;;0.75;;
18210;SDS011;9231;48.852;9.882;2023-08-30T13:00:16;1.70;;;0.85;;
18210;SDS011;9231;48.852;9.882;2023-08-30T13:02:42;1.35;;;0.90;;
18210;SDS011;9231;48.852;9.882;2023-08-30T13:05:08;1.50;;;1.10;;
18210;SDS011;9231;48.852;9.882;2023-08-30T13:07:36;0.95;;;0.73;;
18210;SDS011;9231;48.852;9.882;2023-08-30T13:10:04;1.88;;;0.90;;
18210;SDS011;9231;48.852;9.882;2023-08-30T13:12:30;1.02;;;0.93;;
18210;SDS011;9231;48.852;9.882;2023-08-30T13:14:57;1.75;;;0.80;;
18210;SDS011;9231;48.852;9.882;2023-08-30T13:17:23;1.65;;;1.10;;
18210;SDS011;9231;48.852;9.882;2023-08-30T13:19:50;2.67;;;1.00;;
18210;SDS011;9231;48.852;9.882;2023-08-30T13:22:16;2.30;;;0.90;;
18210;SDS011;9231;48.852;9.882;2023-08-30T13:24:43;1.08;;;0.93;;
18210;SDS011;9231;48.852;9.882;2023-08-30T13:27:11;2.63;;;1.10;;
18210;SDS011;9231;48.852;9.882;2023-08-30T13:29:38;1.38;;;0.95;;
18210;SDS011;9231;48.852;9.882;2023-08-30T13:32:04;1.33;;;1.08;;
18210;SDS011;9231;48.852;9.882;2023-08-30T13:34:31;1.88;;;1.02;;
18210;SDS011;9231;48.852;9.882;2023-08-30T13:36:57;2.35;;;1.10;;
18210;SDS011;9231;48.852;9.882;2023-08-30T13:39:24;2.08;;;1.02;;
18210;SDS011;9231;48.852;9.882;2023-08-30T13:41:50;2.28;;;0.90;;
18210;SDS011;9231;48.852;9.882;2023-08-30T13:44:18;1.10;;;1.00;;
18210;SDS011;9231;48.852;9.882;2023-08-30T13:46:44;1.88;;;1.10;;
18210;SDS011;9231;48.852;9.882;2023-08-30T13:49:13;1.30;;;1.00;;
18210;SDS011;9231;48.852;9.882;2023-08-30T13:51:39;2.72;;;1.00;;
18210;SDS011;9231;48.852;9.882;2023-08-30T13:54:06;1.25;;;1.00;;
18210;SDS011;9231;48.852;9.882;2023-08-30T13:56:32;1.65;;;1.00;;
18210;SDS011;9231;48.852;9.882;2023-08-30T13:58:59;4.05;;;1.02;;
18210;SDS011;9231;48.852;9.882;2023-08-30T14:01:27;1.85;;;1.20;;
18210;SDS011;9231;48.852;9.882;2023-08-30T14:03:53;1.48;;;1.08;;
18210;SDS011;9231;48.852;9.882;2023-08-30T14:06:20;1.67;;;1.23;;
18210;SDS011;9231;48.852;9.882;2023-08-30T14:08:46;1.23;;;1.10;;
18210;SDS011;9231;48.852;9.882;2023-08-30T14:11:13;1.52;;;1.10;;
18210;SDS011;9231;48.852;9.882;2023-08-30T14:13:40;2.78;;;1.10;;
18210;SDS011;9231;48.852;9.882;2023-08-30T14:16:06;1.60;;;1.20;;
18210;SDS011;9231;48.852;9.882;2023-08-30T14:18:35;2.45;;;1.17;;
18210;SDS011;9231;48.852;9.882;2023-08-30T14:21:01;1.20;;;1.10;;
18210;SDS011;9231;48.852;9.882;2023-08-30T14:23:28;2.97;;;1.23;;
18210;SDS011;9231;48.852;9.882;2023-08-30T14:25:55;1.60;;;1.00;;
18210;SDS011;9231;48.852;9.882;2023-08-30T14:28:22;2.47;;;1.40;;
18210;SDS011;9231;48.852;9.882;2023-08-30T14:30:48;4.45;;;2.08;;
18210;SDS011;9231;48.852;9.882;2023-08-30T14:33:15;1.75;;;1.13;;
18210;SDS011;9231;48.852;9.882;2023-08-30T14:35:43;2.17;;;1.35;;
18210;SDS011;9231;48.852;9.882;2023-08-30T14:38:10;1.27;;;1.17;;
18210;SDS011;9231;48.852;9.882;2023-08-30T14:40:37;1.52;;;1.08;;
18210;SDS011;9231;48.852;9.882;2023-08-30T14:43:04;2.25;;;1.30;;
18210;SDS011;9231;48.852;9.882;2023-08-30T14:45:30;1.80;;;1.58;;
18210;SDS011;9231;48.852;9.882;2023-08-30T14:47:56;3.95;;;1.67;;